Terminal Aerodrome Forecast
Issued by NWS Brownsville, TX

Home | Current Version | Previous Version | Text Only | Print | Product List | Glossary On
Versions: 1 2 3 4 5 6 7 8 9 10 11 12 13 14 15 16 17 18 19 20 21 22 23 24 25 26 27
000
FTUS44 KBRO 260326 CCA
TAFMFE
TAF COR
KMFE 260326Z 2603/2624 10007KT P6SM -RA FEW030 BKN070 BKN100
      TEMPO 2603/2606 VRB20G30KT -TSRA BKN020CB
     FM260600 13008KT P6SM VCSH BKN020
     FM261000 13007KT 5SM BR BKN015
     FM261600 14015KT 6SM HZ BKN025
     FM261700 15016G22KT 6SM BR SCT030 BKN050 OVC250=

USA.gov is the U.S. government's official web portal to all federal, state and local government web resources and services.